createdAt,value
2022-08-04T00:02:05.838Z,26.66
2022-08-04T00:04:44.358Z,26.64
2022-08-04T00:07:20.031Z,26.55
2022-08-04T00:10:09.986Z,26.52
2022-08-04T00:12:42.362Z,26.48
2022-08-04T00:15:16.623Z,26.48
2022-08-04T00:17:50.253Z,26.46
2022-08-04T00:20:21.139Z,26.54
2022-08-04T00:22:53.240Z,26.59
2022-08-04T00:25:21.088Z,26.63
2022-08-04T00:27:49.194Z,26.62
2022-08-04T00:30:16.911Z,26.64
2022-08-04T00:32:44.897Z,26.71
2022-08-04T00:35:15.873Z,26.75
2022-08-04T00:37:45.807Z,26.78
2022-08-04T00:40:26.060Z,26.72
2022-08-04T00:43:09.723Z,26.71
2022-08-04T00:46:15.922Z,26.68
2022-08-04T00:48:57.829Z,26.63
2022-08-04T00:51:37.106Z,26.58
2022-08-04T00:54:12.413Z,26.60
2022-08-04T00:57:33.736Z,26.62
2022-08-04T01:00:07.564Z,26.54
2022-08-04T01:02:41.106Z,26.54
2022-08-04T01:05:21.447Z,26.37
2022-08-04T01:08:12.906Z,26.46
2022-08-04T01:10:54.341Z,26.47
2022-08-04T01:13:44.780Z,26.42
2022-08-04T01:16:18.076Z,26.32
2022-08-04T01:18:56.757Z,26.40
2022-08-04T01:21:50.606Z,26.64
2022-08-04T01:24:46.909Z,26.74
2022-08-04T01:27:28.527Z,26.63
2022-08-04T01:30:01.583Z,26.59
2022-08-04T01:32:33.591Z,26.47
2022-08-04T01:35:09.777Z,26.25
2022-08-04T01:37:52.768Z,25.97
2022-08-04T01:40:22.511Z,25.84
2022-08-04T01:42:54.109Z,25.86
2022-08-04T01:45:26.089Z,25.78
2022-08-04T01:47:55.307Z,25.66
2022-08-04T01:50:24.317Z,25.66
2022-08-04T01:52:55.191Z,25.56
2022-08-04T01:55:23.588Z,25.46
2022-08-04T01:58:12.895Z,25.53
2022-08-04T02:00:53.227Z,25.40
2022-08-04T02:03:23.746Z,25.30
2022-08-04T02:06:27.167Z,25.25
2022-08-04T02:09:05.358Z,25.20
2022-08-04T02:11:33.200Z,25.16
2022-08-04T02:14:07.789Z,25.18
2022-08-04T02:16:45.482Z,25.19
2022-08-04T02:19:31.280Z,25.12
2022-08-04T02:22:08.055Z,25.10
2022-08-04T02:24:44.340Z,25.10
2022-08-04T02:27:14.669Z,25.01
2022-08-04T02:29:52.498Z,25.50
2022-08-04T02:32:28.743Z,25.48
2022-08-04T02:35:05.417Z,25.30
2022-08-04T02:37:34.172Z,25.10
2022-08-04T02:40:05.525Z,25.04
2022-08-04T02:42:34.083Z,25.39
2022-08-04T02:45:02.287Z,25.54
2022-08-04T02:48:29.803Z,25.66
2022-08-04T02:50:28.242Z,25.39
2022-08-04T02:52:59.365Z,25.42
2022-08-04T02:55:30.115Z,25.51
2022-08-04T02:58:00.603Z,25.59
2022-08-04T03:00:29.259Z,25.21
2022-08-04T03:03:08.464Z,25.10
2022-08-04T03:06:01.496Z,24.99
2022-08-04T03:08:52.060Z,24.85
2022-08-04T03:11:57.753Z,25.08
2022-08-04T03:15:10.076Z,25.00
2022-08-04T03:18:14.158Z,24.85
2022-08-04T03:21:16.673Z,24.93
2022-08-04T03:24:20.520Z,24.97
2022-08-04T03:27:11.148Z,25.32
2022-08-04T03:30:06.020Z,25.70
2022-08-04T03:33:21.163Z,25.58
2022-08-04T03:36:33.515Z,25.26
2022-08-04T03:39:22.595Z,25.09
2022-08-04T03:42:08.262Z,24.84
2022-08-04T03:44:58.722Z,25.30
2022-08-04T03:47:45.960Z,25.49
2022-08-04T03:51:35.136Z,25.33
2022-08-04T03:54:33.075Z,25.20
2022-08-04T03:57:31.566Z,25.62
2022-08-04T04:00:09.732Z,25.70
2022-08-04T04:02:57.981Z,25.68
2022-08-04T04:05:59.004Z,25.55
2022-08-04T04:08:54.773Z,25.52
2022-08-04T04:11:58.853Z,25.53
2022-08-04T04:14:53.262Z,25.47
2022-08-04T04:17:50.115Z,25.39
2022-08-04T04:20:48.106Z,25.26
2022-08-04T04:23:36.459Z,25.08
2022-08-04T04:26:33.326Z,25.00
2022-08-04T04:29:14.624Z,24.80
2022-08-04T04:32:00.569Z,24.60
2022-08-04T04:34:46.003Z,24.59
2022-08-04T04:37:22.449Z,24.60
2022-08-04T04:40:04.924Z,24.66
2022-08-04T04:42:44.279Z,24.72
2022-08-04T04:45:21.364Z,24.77
2022-08-04T04:48:08.662Z,24.81
2022-08-04T04:50:53.192Z,24.81
2022-08-04T04:53:29.365Z,24.82
2022-08-04T04:56:06.981Z,24.82
2022-08-04T04:58:38.992Z,24.79
2022-08-04T05:01:25.484Z,24.78
2022-08-04T05:04:19.170Z,24.80
2022-08-04T05:07:07.527Z,24.77
2022-08-04T05:09:53.333Z,24.69
2022-08-04T05:14:31.289Z,24.72
2022-08-04T05:15:46.068Z,24.79
2022-08-04T05:18:18.588Z,24.80
2022-08-04T05:20:52.271Z,24.90
2022-08-04T05:23:24.709Z,24.88
2022-08-04T05:25:59.464Z,24.87
2022-08-04T05:28:34.627Z,24.90
2022-08-04T05:31:17.181Z,25.00
2022-08-04T05:33:49.977Z,25.03
2022-08-04T05:36:35.343Z,24.96
2022-08-04T05:39:13.159Z,24.87
2022-08-04T05:41:45.746Z,24.71
2022-08-04T05:44:17.808Z,24.84
2022-08-04T05:46:53.661Z,25.05
2022-08-04T05:49:23.731Z,25.34
2022-08-04T05:51:53.131Z,25.38
2022-08-04T05:54:22.359Z,25.42
2022-08-04T05:56:50.969Z,25.41
2022-08-04T05:59:21.609Z,25.29
2022-08-04T06:01:55.949Z,25.53
2022-08-04T06:04:28.977Z,25.59
2022-08-04T06:06:56.756Z,25.51
2022-08-04T06:09:24.543Z,25.59
2022-08-04T06:12:00.482Z,25.59
2022-08-04T06:14:36.816Z,25.44
2022-08-04T06:18:32.145Z,25.45
2022-08-04T06:20:19.037Z,25.57
2022-08-04T06:22:47.564Z,25.53
2022-08-04T06:25:20.485Z,25.41
2022-08-04T06:27:49.627Z,25.54
2022-08-04T06:30:20.091Z,25.84
2022-08-04T06:33:03.493Z,25.86
2022-08-04T06:35:33.446Z,25.88
2022-08-04T06:38:02.937Z,25.80
2022-08-04T06:40:33.729Z,25.95
2022-08-04T06:43:03.985Z,25.96
2022-08-04T06:45:35.411Z,25.92
2022-08-04T06:48:04.405Z,25.92
2022-08-04T06:51:27.121Z,25.84
2022-08-04T06:53:21.232Z,25.83
2022-08-04T06:55:50.253Z,25.91
2022-08-04T06:58:19.694Z,25.93
2022-08-04T07:00:50.542Z,25.94
2022-08-04T07:03:21.546Z,25.87
2022-08-04T07:05:50.148Z,26.18
2022-08-04T07:08:18.207Z,26.22
2022-08-04T07:10:46.509Z,26.13
2022-08-04T07:13:15.155Z,26.10
2022-08-04T07:15:46.055Z,26.08
2022-08-04T07:18:15.325Z,26.16
2022-08-04T07:20:44.562Z,26.12
2022-08-04T07:23:17.228Z,26.51
2022-08-04T07:25:59.492Z,26.66
2022-08-04T07:28:31.319Z,26.74
2022-08-04T07:30:59.705Z,26.77
2022-08-04T07:33:29.252Z,26.66
2022-08-04T07:36:05.958Z,26.51
2022-08-04T07:38:49.745Z,26.46
2022-08-04T07:41:38.033Z,26.39
2022-08-04T07:44:07.814Z,26.41
2022-08-04T07:46:35.687Z,26.40
2022-08-04T07:49:05.400Z,26.40
2022-08-04T07:51:35.261Z,26.44
2022-08-04T07:54:04.002Z,26.46
2022-08-04T07:56:32.492Z,26.47
2022-08-04T07:59:01.941Z,26.51
2022-08-04T08:01:29.648Z,26.88
2022-08-04T08:04:01.592Z,26.72
2022-08-04T08:06:36.469Z,26.70
2022-08-04T08:09:13.833Z,26.64
2022-08-04T08:12:38.442Z,26.66
2022-08-04T08:14:35.393Z,26.67
2022-08-04T08:17:04.170Z,26.97
2022-08-04T08:19:32.442Z,27.40
2022-08-04T08:22:02.305Z,27.42
2022-08-04T08:24:31.772Z,27.32
2022-08-04T08:27:00.134Z,27.43
2022-08-04T08:29:30.234Z,27.23
2022-08-04T08:32:02.698Z,27.32
2022-08-04T08:34:32.073Z,27.70
2022-08-04T08:37:06.088Z,27.55
2022-08-04T08:39:39.991Z,27.63
2022-08-04T08:42:28.952Z,27.70
2022-08-04T08:45:49.621Z,27.57
2022-08-04T08:48:52.766Z,27.69
2022-08-04T08:51:55.137Z,27.61
2022-08-04T08:55:04.882Z,27.46
2022-08-04T08:57:59.770Z,27.41
2022-08-04T09:00:38.044Z,27.37
2022-08-04T09:03:25.108Z,27.34
2022-08-04T09:06:04.082Z,27.35
2022-08-04T09:09:06.240Z,27.51
2022-08-04T09:11:43.083Z,27.46
2022-08-04T09:14:24.953Z,27.52
2022-08-04T09:16:56.668Z,27.52
2022-08-04T09:19:38.287Z,27.60
2022-08-04T09:22:17.268Z,27.68
2022-08-04T09:24:52.898Z,27.98
2022-08-04T09:27:23.380Z,28.05
2022-08-04T09:30:08.109Z,27.87
2022-08-04T09:32:48.459Z,27.91
2022-08-04T09:35:25.215Z,27.78
2022-08-04T09:38:11.051Z,27.72
2022-08-04T09:40:55.526Z,27.72
2022-08-04T09:43:57.014Z,27.74
2022-08-04T09:46:34.603Z,27.77
2022-08-04T09:49:08.723Z,27.77
2022-08-04T09:51:56.720Z,27.84
2022-08-04T09:54:34.490Z,27.93
2022-08-04T09:57:14.273Z,28.00
2022-08-04T09:59:47.561Z,27.94
2022-08-04T10:02:20.183Z,27.92
2022-08-04T10:04:50.299Z,27.95
2022-08-04T10:07:37.023Z,27.94
2022-08-04T10:10:16.932Z,27.98
2022-08-04T10:13:04.607Z,28.01
2022-08-04T10:15:41.424Z,28.23
2022-08-04T10:18:30.640Z,28.39
2022-08-04T10:21:15.230Z,28.25
2022-08-04T10:24:13.583Z,28.25
2022-08-04T10:26:53.100Z,28.31
2022-08-04T10:29:29.701Z,28.27
2022-08-04T10:32:01.536Z,28.28
2022-08-04T10:34:40.601Z,28.29
2022-08-04T10:37:20.270Z,29.05
2022-08-04T10:40:09.364Z,29.34
2022-08-04T10:42:42.938Z,29.38
2022-08-04T10:45:17.763Z,29.42
2022-08-04T10:47:55.559Z,29.61
2022-08-04T10:50:28.355Z,29.66
2022-08-04T10:53:03.481Z,29.67
2022-08-04T10:56:06.477Z,29.33
2022-08-04T10:58:46.922Z,29.12
2022-08-04T11:02:01.650Z,28.97
2022-08-04T11:04:27.167Z,28.88
2022-08-04T11:07:00.449Z,28.95
2022-08-04T11:09:29.862Z,28.93
2022-08-04T11:12:05.027Z,28.96
2022-08-04T11:14:38.827Z,29.02
2022-08-04T11:17:12.078Z,29.66
2022-08-04T11:19:53.276Z,29.59
2022-08-04T11:22:27.111Z,29.40
2022-08-04T11:25:01.070Z,29.41
2022-08-04T11:27:35.934Z,29.79
2022-08-04T11:30:06.679Z,29.99
2022-08-04T11:32:42.407Z,30.01
2022-08-04T11:35:18.420Z,29.69
2022-08-04T11:37:52.435Z,29.60
2022-08-04T11:40:26.353Z,29.41
2022-08-04T11:43:01.959Z,29.88
2022-08-04T11:45:42.145Z,30.01
2022-08-04T11:48:14.314Z,29.85
2022-08-04T11:50:53.466Z,30.16
2022-08-04T11:53:26.389Z,30.60
2022-08-04T11:56:11.077Z,30.55
2022-08-04T11:58:39.560Z,30.62
2022-08-04T12:01:19.181Z,30.58
2022-08-04T12:04:03.662Z,30.42
2022-08-04T12:06:56.728Z,30.23
2022-08-04T12:09:46.890Z,30.09
2022-08-04T12:12:24.239Z,30.14
2022-08-04T12:14:59.340Z,30.04
2022-08-04T12:17:51.998Z,30.01
2022-08-04T12:20:32.215Z,29.94
2022-08-04T12:23:16.363Z,30.42
2022-08-04T12:25:49.819Z,30.21
2022-08-04T12:28:23.418Z,30.08
2022-08-04T12:31:03.338Z,29.98
2022-08-04T12:33:41.221Z,29.93
2022-08-04T12:36:34.620Z,29.92
2022-08-04T12:39:10.441Z,29.97
2022-08-04T12:41:45.582Z,29.93
2022-08-04T12:44:37.397Z,30.01
2022-08-04T12:47:27.555Z,30.00
2022-08-04T12:50:00.799Z,30.03
2022-08-04T12:53:01.106Z,30.01
2022-08-04T12:55:19.148Z,30.00
2022-08-04T12:57:50.587Z,29.99
2022-08-04T13:00:29.824Z,29.99
2022-08-04T13:03:05.644Z,30.07
2022-08-04T13:05:39.148Z,30.27
2022-08-04T13:08:08.544Z,30.34
2022-08-04T13:10:41.190Z,30.52
2022-08-04T13:13:17.910Z,30.66
2022-08-04T13:15:56.516Z,30.72
2022-08-04T13:18:30.144Z,30.57
2022-08-04T13:21:19.485Z,30.71
2022-08-04T13:24:10.880Z,30.75
2022-08-04T13:26:54.753Z,31.20
2022-08-04T13:30:00.473Z,31.33
2022-08-04T13:32:22.240Z,31.32
2022-08-04T13:34:53.540Z,31.35
2022-08-04T13:37:26.524Z,31.40
2022-08-04T13:39:56.790Z,31.29
2022-08-04T13:42:27.429Z,31.17
2022-08-04T13:44:59.058Z,31.07
2022-08-04T13:47:31.064Z,31.06
2022-08-04T13:50:16.432Z,31.11
2022-08-04T13:52:45.596Z,31.24
2022-08-04T13:55:24.191Z,31.39
2022-08-04T13:57:56.765Z,31.49
2022-08-04T14:00:30.218Z,31.51
2022-08-04T14:03:23.281Z,31.58
2022-08-04T14:06:15.063Z,31.73
2022-08-04T14:08:55.013Z,32.13
2022-08-04T14:12:07.145Z,32.28
2022-08-04T14:14:23.284Z,32.41
2022-08-04T14:17:04.561Z,32.45
2022-08-04T14:19:53.011Z,32.42
2022-08-04T14:22:35.772Z,32.39
2022-08-04T14:25:09.143Z,32.44
2022-08-04T14:27:46.351Z,32.68
2022-08-04T14:30:23.393Z,32.68
2022-08-04T14:34:01.574Z,33.11
2022-08-04T14:35:58.390Z,33.61
2022-08-04T14:38:42.075Z,33.79
2022-08-04T14:41:09.848Z,34.11
2022-08-04T14:43:44.283Z,34.33
2022-08-04T14:46:12.676Z,34.71
2022-08-04T14:49:01.270Z,34.88
2022-08-04T14:51:36.369Z,35.12
2022-08-04T14:54:08.975Z,35.33
2022-08-04T14:56:47.667Z,35.62
2022-08-04T14:59:15.496Z,35.68
2022-08-04T15:01:44.223Z,35.77
2022-08-04T15:04:14.854Z,35.80
2022-08-04T15:06:43.089Z,35.84
2022-08-04T15:09:11.642Z,35.85
2022-08-04T15:11:43.314Z,36.03
2022-08-04T15:14:36.458Z,36.16
2022-08-04T15:16:59.270Z,36.35
2022-08-04T15:19:28.550Z,36.41
2022-08-04T15:21:56.727Z,36.55
2022-08-04T15:24:24.474Z,36.40
2022-08-04T15:26:57.541Z,36.43
2022-08-04T15:29:29.633Z,36.55
2022-08-04T15:32:18.409Z,36.62
2022-08-04T15:34:49.193Z,36.60
2022-08-04T15:37:26.486Z,36.66
2022-08-04T15:40:00.762Z,36.92
2022-08-04T15:42:39.157Z,36.74
2022-08-04T15:45:21.051Z,36.56
2022-08-04T15:48:26.064Z,36.65
2022-08-04T15:51:15.144Z,37.17
2022-08-04T15:54:33.179Z,37.33
2022-08-04T15:57:02.458Z,37.37
2022-08-04T16:00:03.733Z,36.96
2022-08-04T16:02:39.348Z,36.98
2022-08-04T16:05:34.442Z,36.74
2022-08-04T16:08:11.793Z,36.70
2022-08-04T16:10:42.444Z,36.43
2022-08-04T16:13:13.889Z,36.23
2022-08-04T16:15:46.844Z,36.55
2022-08-04T16:18:26.553Z,36.46
2022-08-04T16:20:57.170Z,36.17
2022-08-04T16:23:57.946Z,36.01
2022-08-04T16:26:55.171Z,35.86
2022-08-04T16:29:42.347Z,35.78
2022-08-04T16:32:12.203Z,35.69
2022-08-04T16:34:49.892Z,35.66
2022-08-04T16:37:22.877Z,35.87
2022-08-04T16:40:44.651Z,35.97
2022-08-04T16:54:03.603Z,35.41
2022-08-04T17:09:28.741Z,34.92
2022-08-04T17:14:48.037Z,34.72
2022-08-04T17:17:16.658Z,34.64
2022-08-04T17:19:53.410Z,34.58
2022-08-04T17:22:21.325Z,34.56
2022-08-04T17:24:50.634Z,34.74
2022-08-04T17:28:09.157Z,34.84
2022-08-04T17:30:27.530Z,34.65
2022-08-04T17:32:55.340Z,34.57
2022-08-04T17:35:23.375Z,34.59
2022-08-04T17:37:52.786Z,34.57
2022-08-04T17:40:25.595Z,34.47
2022-08-04T17:44:02.868Z,34.23
2022-08-04T17:46:28.678Z,34.07
2022-08-04T17:49:09.707Z,33.79
2022-08-04T17:52:05.605Z,33.64
2022-08-04T17:54:37.030Z,33.48
2022-08-04T17:57:15.693Z,33.37
2022-08-04T17:59:57.743Z,33.28
2022-08-04T18:02:31.871Z,33.22
2022-08-04T18:05:06.758Z,33.14
2022-08-04T18:08:38.395Z,33.06
2022-08-04T18:10:52.183Z,32.99
2022-08-04T18:13:23.111Z,33.00
2022-08-04T18:16:02.428Z,33.13
2022-08-04T18:18:30.897Z,33.89
2022-08-04T18:21:02.791Z,34.81
2022-08-04T18:23:32.774Z,35.68
2022-08-04T18:26:02.456Z,36.33
2022-08-04T18:28:33.595Z,36.65
2022-08-04T18:31:03.136Z,36.81
2022-08-04T18:33:39.749Z,36.89
2022-08-04T18:38:58.860Z,36.79
2022-08-04T18:41:27.658Z,36.72
2022-08-04T18:43:56.785Z,36.68
2022-08-04T18:46:26.943Z,36.34
2022-08-04T18:48:55.013Z,36.37
2022-08-04T18:51:25.131Z,36.48
2022-08-04T18:53:59.432Z,36.59
2022-08-04T18:56:29.882Z,36.68
2022-08-04T18:59:00.316Z,36.77
2022-08-04T19:04:33.098Z,36.89
2022-08-04T19:07:23.189Z,36.96
2022-08-04T19:09:53.939Z,36.96
2022-08-04T19:12:26.638Z,36.97
2022-08-04T19:14:58.633Z,36.94
2022-08-04T19:17:53.718Z,36.91
2022-08-04T19:20:26.316Z,36.90
2022-08-04T19:24:26.897Z,36.88
2022-08-04T19:25:58.729Z,36.88
2022-08-04T19:31:22.692Z,36.82
2022-08-04T19:34:04.350Z,36.75
2022-08-04T19:36:33.097Z,36.77
2022-08-04T19:39:04.188Z,36.80
2022-08-04T19:42:06.226Z,36.83
2022-08-04T19:44:29.488Z,36.84
2022-08-04T19:47:00.908Z,36.85
2022-08-04T19:50:04.324Z,36.86
2022-08-04T19:52:34.280Z,36.84
2022-08-04T19:55:10.107Z,36.88
2022-08-04T19:57:46.081Z,36.89
2022-08-04T20:00:17.515Z,36.87
2022-08-04T20:03:01.868Z,36.88
2022-08-04T20:05:52.784Z,36.85
2022-08-04T20:08:21.303Z,36.86
2022-08-04T20:10:51.612Z,36.86
2022-08-04T20:13:20.989Z,36.85
2022-08-04T20:15:57.677Z,36.86
2022-08-04T20:18:36.574Z,36.86
2022-08-04T20:21:19.492Z,36.86
2022-08-04T20:23:53.065Z,36.86
2022-08-04T20:26:21.891Z,36.86
2022-08-04T20:28:51.827Z,36.86
2022-08-04T20:31:20.915Z,36.85
2022-08-04T20:33:55.006Z,36.84
2022-08-04T20:36:24.166Z,36.85
2022-08-04T20:39:09.714Z,36.82
2022-08-04T20:41:44.951Z,36.82
2022-08-04T20:44:12.747Z,36.57
2022-08-04T20:46:40.448Z,36.25
2022-08-04T20:49:08.246Z,35.73
2022-08-04T20:51:40.186Z,35.26
2022-08-04T20:54:16.914Z,34.80
2022-08-04T20:56:51.421Z,34.78
2022-08-04T20:59:19.562Z,34.52
2022-08-04T21:01:49.646Z,34.42
2022-08-04T21:04:35.979Z,34.16
2022-08-04T21:07:07.434Z,34.17
2022-08-04T21:09:38.376Z,33.93
2022-08-04T21:12:27.860Z,33.84
2022-08-04T21:14:58.100Z,33.71
2022-08-04T21:17:59.455Z,33.45
2022-08-04T21:20:14.172Z,33.25
2022-08-04T21:22:59.530Z,33.36
2022-08-04T21:25:29.599Z,33.35
2022-08-04T21:27:58.636Z,33.21
2022-08-04T21:30:27.131Z,33.15
2022-08-04T21:32:55.686Z,33.01
2022-08-04T21:35:36.753Z,32.98
2022-08-04T21:38:16.504Z,32.86
2022-08-04T21:40:53.472Z,32.72
2022-08-04T21:43:23.516Z,32.65
2022-08-04T21:45:55.713Z,32.62
2022-08-04T21:48:27.642Z,32.52
2022-08-04T21:50:56.243Z,32.47
2022-08-04T21:53:27.745Z,32.42
2022-08-04T21:56:05.024Z,32.26
2022-08-04T21:58:35.082Z,32.16
2022-08-04T22:01:06.106Z,32.14
2022-08-04T22:03:53.781Z,32.14
2022-08-04T22:06:28.830Z,32.10
2022-08-04T22:08:58.593Z,31.99
2022-08-04T22:11:48.901Z,32.03
2022-08-04T22:14:17.460Z,31.87
2022-08-04T22:16:56.449Z,31.90
2022-08-04T22:19:39.868Z,31.92
2022-08-04T22:22:13.637Z,31.86
2022-08-04T22:24:58.835Z,31.15
2022-08-04T22:27:47.724Z,30.72
2022-08-04T22:30:23.447Z,31.05
2022-08-04T22:32:51.304Z,31.14
2022-08-04T22:35:36.107Z,30.74
2022-08-04T22:38:24.340Z,30.97
2022-08-04T22:41:01.171Z,31.11
2022-08-04T22:43:32.654Z,31.11
2022-08-04T22:46:03.895Z,31.06
2022-08-04T22:48:32.435Z,31.00
2022-08-04T22:51:00.597Z,30.98
2022-08-04T22:53:28.389Z,30.87
2022-08-04T22:56:06.780Z,30.76
2022-08-04T22:58:40.093Z,30.92
2022-08-04T23:01:08.634Z,30.91
2022-08-04T23:03:38.644Z,30.80
2022-08-04T23:06:11.030Z,30.82
2022-08-04T23:08:43.029Z,30.80
2022-08-04T23:11:14.881Z,30.71
2022-08-04T23:13:44.066Z,30.71
2022-08-04T23:16:12.294Z,30.55
2022-08-04T23:18:42.092Z,30.49
2022-08-04T23:21:13.978Z,30.50
2022-08-04T23:23:45.386Z,30.57
2022-08-04T23:26:27.354Z,30.53
2022-08-04T23:28:57.063Z,30.44
2022-08-04T23:31:25.444Z,30.40
2022-08-04T23:34:12.318Z,30.40
2022-08-04T23:36:40.956Z,30.36
2022-08-04T23:39:10.489Z,30.28
2022-08-04T23:41:54.054Z,30.17
2022-08-04T23:44:28.172Z,30.11
2022-08-04T23:47:00.727Z,30.17
2022-08-04T23:49:44.482Z,30.05
2022-08-04T23:52:23.339Z,30.02
2022-08-04T23:54:59.401Z,30.05
2022-08-04T23:57:30.822Z,30.10
